This is the latest recevied weather packets stored in our database for station/object KD7JB. If no packets are shown the sender has not sent any weather packets the latest 10 day(s).
| Time | Temp. | Humidity | Pressure | Rain* | Wind** | Luminosity | Snow |
|---|---|---|---|---|---|---|---|
| 1777993285 | 15.56° C | 49% | 1175.3 hPa | 0 mm | - | 254 W/m² | - |
| 1777992980 | 15° C | 50% | 1175.1 hPa | 0 mm | - | 238 W/m² | - |
| 1777992679 | 14.44° C | 50% | 1174.8 hPa | 0 mm | - | 224 W/m² | - |
| 1777992376 | 14.44° C | 49% | 1174.9 hPa | 0 mm | - | 210 W/m² | - |
| 1777992074 | 15° C | 51% | 1175.1 hPa | 0 mm | - | 194 W/m² | - |
| 1777991771 | 14.44° C | 51% | 1175.1 hPa | 0 mm | - | 179 W/m² | - |
| 1777991468 | 13.89° C | 51% | 1174.9 hPa | 0 mm | - | 165 W/m² | - |
| 1777991165 | 13.89° C | 51% | 1174.9 hPa | 0 mm | - | 152 W/m² | - |
| 1777990862 | 14.44° C | 51% | 1174.7 hPa | 0 mm | - | 38 W/m² | - |
| 1777990560 | 13.89° C | 51% | 1174.7 hPa | 0 mm | - | 125 W/m² | - |
| 1777989953 | 14.44° C | 51% | 1174.6 hPa | 0 mm | - | 35 W/m² | - |
| 1777989650 | 14.44° C | 50% | 1174.6 hPa | 0 mm | - | 90 W/m² | - |
| 1777989346 | 14.44° C | 51% | 1174.5 hPa | 0 mm | - | 80 W/m² | - |
| 1777989042 | 15° C | 50% | 1174.5 hPa | 0 mm | - | 41 W/m² | - |
| 1777988738 | 14.44° C | 50% | 1174.4 hPa | 0 mm | - | 31 W/m² | - |
| 1777988436 | 14.44° C | 50% | 1174.4 hPa | 0 mm | - | 29 W/m² | - |
| 1777988133 | 13.89° C | 53% | 1174.4 hPa | 0 mm | - | 43 W/m² | - |
| 1777987829 | 13.89° C | 52% | 1174.4 hPa | 0 mm | - | 36 W/m² | - |
| 1777987526 | 13.33° C | 52% | 1174.3 hPa | 0 mm | - | 29 W/m² | - |
| 1777987223 | 13.33° C | 52% | 1174 hPa | 0 mm | - | 25 W/m² | - |
| 1777986919 | 13.33° C | 52% | 1174 hPa | 0 mm | - | 22 W/m² | - |
| 1777986618 | 13.33° C | 52% | 1174 hPa | 0 mm | - | 19 W/m² | - |
| 1777986315 | 12.78° C | 53% | 1174 hPa | 0 mm | - | 16 W/m² | - |
| 1777986014 | 12.78° C | 53% | 1173.9 hPa | 0 mm | - | 13 W/m² | - |
| 1777985710 | 12.78° C | 54% | 1173.9 hPa | 0 mm | - | 11 W/m² | - |
* Rain latest hour (hover to see other rain measurements)
** Current wind speed in m/s (hover to see current wind gust speed)